Time;durP1;ratioP1;P1;durP2;ratioP2;P2;SDS_P1;SDS_P2;PMS_P1;PMS_P2;Temp;Humidity;BMP_temperature;BMP_pressure;BME280_temperature;BME280_humidity;BME280_pressure;Samples;Min_cycle;Max_cycle;Signal;HPM_P1;HPM_P2
2022/09/24 00:01:27;;;;;;;49.47;44.13;;;14.00;99.90;;;;;;5074935;28;20283;-66
2022/09/24 00:04:02;;;;;;;44.80;40.07;;;13.90;99.90;;;;;;5074941;28;20316;-66
2022/09/24 00:06:29;;;;;;;49.80;44.13;;;14.00;99.90;;;;;;5075039;28;20278;-66
2022/09/24 00:08:56;;;;;;;43.20;38.67;;;13.90;99.90;;;;;;5074950;28;20042;-66
2022/09/24 00:11:27;;;;;;;44.43;39.73;;;13.90;99.90;;;;;;5075013;28;20417;-66
2022/09/24 00:13:54;;;;;;;46.13;41.27;;;13.90;99.90;;;;;;5074511;28;20643;-66
2022/09/24 00:16:22;;;;;;;50.70;45.40;;;14.00;99.90;;;;;;5074963;28;20302;-66
2022/09/24 00:18:47;;;;;;;46.53;41.73;;;14.00;99.90;;;;;;5074752;28;20282;-66
2022/09/24 00:21:30;;;;;;;44.63;39.97;;;13.90;99.90;;;;;;5074822;28;20290;-66
2022/09/24 00:24:02;;;;;;;45.43;39.70;;;14.00;99.90;;;;;;5074744;28;20047;-66
2022/09/24 00:29:16;;;;;;;47.83;42.77;;;13.90;99.90;;;;;;5074810;28;20283;-66
2022/09/24 00:31:41;;;;;;;49.27;43.87;;;14.00;99.90;;;;;;5056770;28;20291;-66
2022/09/24 00:34:07;;;;;;;49.67;44.40;;;13.90;99.90;;;;;;5074699;28;20293;-66
2022/09/24 00:36:33;;;;;;;54.13;47.30;;;13.90;99.90;;;;;;5074381;28;20126;-69
2022/09/24 00:38:59;;;;;;;49.97;44.67;;;14.00;99.90;;;;;;5074553;28;20194;-66
2022/09/24 00:41:28;;;;;;;48.00;42.80;;;13.90;99.90;;;;;;5074405;28;20051;-66
2022/09/24 00:43:55;;;;;;;48.53;43.53;;;13.90;99.90;;;;;;5073913;28;20059;-66
2022/09/24 00:46:24;;;;;;;57.50;51.20;;;14.00;99.90;;;;;;5056537;28;20274;-66
2022/09/24 00:48:56;;;;;;;60.90;54.17;;;14.00;99.90;;;;;;5074060;28;20301;-66
2022/09/24 00:51:25;;;;;;;53.93;48.00;;;14.00;99.90;;;;;;5074485;28;20267;-66
2022/09/24 00:53:54;;;;;;;59.87;47.93;;;14.00;99.90;;;;;;5073902;28;20274;-66
2022/09/24 00:56:22;;;;;;;56.13;50.07;;;14.00;99.90;;;;;;5074258;28;20298;-66
2022/09/24 00:58:55;;;;;;;57.20;51.03;;;14.00;99.90;;;;;;5073729;28;20279;-66
2022/09/24 01:01:23;;;;;;;57.90;51.33;;;14.00;99.90;;;;;;5073930;28;20333;-66
2022/09/24 01:03:51;;;;;;;69.27;57.30;;;14.00;99.90;;;;;;5073681;28;20282;-67
2022/09/24 01:06:17;;;;;;;67.53;57.60;;;14.00;99.90;;;;;;5073939;28;20275;-67
2022/09/24 01:08:44;;;;;;;73.67;62.70;;;14.00;99.90;;;;;;5073545;28;20310;-67
2022/09/24 01:11:18;;;;;;;56.80;50.80;;;14.00;99.90;;;;;;5073939;28;20071;-66
2022/09/24 01:14:05;;;;;;;70.28;61.58;;;14.00;99.90;;;;;;5073343;28;20293;-67
2022/09/24 01:16:37;;;;;;;68.67;59.33;;;14.00;99.90;;;;;;5073919;28;20114;-66
2022/09/24 01:19:35;;;;;;;58.20;51.83;;;14.00;99.90;;;;;;5073465;28;20378;-66
2022/09/24 01:22:44;;;;;;;90.83;72.43;;;14.00;99.90;;;;;;5073490;28;20667;-66
2022/09/24 01:25:45;;;;;;;77.83;61.10;;;14.00;99.90;;;;;;5073675;28;20275;-66
2022/09/24 01:28:41;;;;;;;75.30;62.73;;;14.00;99.90;;;;;;5073569;28;20275;-66
2022/09/24 01:31:18;;;;;;;71.17;60.33;;;14.00;99.90;;;;;;5073632;28;20362;-67
2022/09/24 01:33:48;;;;;;;65.77;55.93;;;14.00;99.90;;;;;;5073252;28;20278;-66
2022/09/24 01:36:16;;;;;;;69.80;56.83;;;14.00;99.90;;;;;;5072215;28;20789;-66
2022/09/24 01:38:44;;;;;;;76.20;60.70;;;14.00;99.90;;;;;;5073034;28;20294;-67
2022/09/24 01:41:11;;;;;;;66.43;56.60;;;14.00;99.90;;;;;;5073476;28;20275;-66
2022/09/24 01:43:38;;;;;;;81.20;62.97;;;14.00;99.90;;;;;;5073032;28;20784;-66
2022/09/24 01:46:05;;;;;;;71.60;58.13;;;14.00;99.90;;;;;;5072892;28;20374;-66
2022/09/24 01:48:36;;;;;;;64.87;55.30;;;14.00;99.90;;;;;;5073310;28;20275;-66
2022/09/24 01:51:08;;;;;;;77.90;61.50;;;14.00;99.90;;;;;;5072976;28;21155;-66
2022/09/24 01:53:41;;;;;;;81.10;63.97;;;14.00;99.90;;;;;;5073094;28;20369;-66
2022/09/24 01:56:21;;;;;;;88.80;68.60;;;14.10;99.90;;;;;;5073012;28;20310;-66
2022/09/24 01:58:58;;;;;;;70.07;55.83;;;14.10;99.90;;;;;;5072867;28;20296;-67
2022/09/24 02:01:36;;;;;;;68.17;56.07;;;14.10;99.90;;;;;;5073281;28;20279;-66
2022/09/24 02:04:10;;;;;;;69.37;57.30;;;14.00;99.90;;;;;;5072801;28;20274;-67
2022/09/24 02:06:43;;;;;;;88.47;65.50;;;14.00;99.90;;;;;;5055435;28;20294;-67
2022/09/24 02:09:28;;;;;;;76.90;60.17;;;14.00;99.90;;;;;;5073101;28;20279;-67
2022/09/24 02:11:57;;;;;;;84.03;61.67;;;14.10;99.90;;;;;;5072588;28;20366;-67
2022/09/24 02:14:24;;;;;;;87.23;63.27;;;14.10;99.90;;;;;;5072734;28;20286;-67
2022/09/24 02:16:50;;;;;;;86.80;61.43;;;14.10;99.90;;;;;;5072450;28;20302;-67
2022/09/24 02:19:21;;;;;;;69.87;59.70;;;14.10;99.90;;;;;;5072747;28;20286;-67
2022/09/24 02:21:48;;;;;;;91.37;63.20;;;14.10;99.90;;;;;;5072672;28;20280;-67
2022/09/24 02:24:18;;;;;;;111.63;74.00;;;14.00;99.90;;;;;;5072714;28;20286;-67
2022/09/24 02:26:44;;;;;;;71.17;57.50;;;14.10;99.90;;;;;;5072784;28;20267;-67
2022/09/24 02:29:11;;;;;;;73.83;56.57;;;14.00;99.90;;;;;;5072441;28;20496;-67
2022/09/24 02:31:48;;;;;;;83.40;63.87;;;14.00;99.90;;;;;;5072700;28;20281;-67
2022/09/24 02:34:23;;;;;;;88.70;61.37;;;14.00;99.90;;;;;;5072714;28;20275;-67
2022/09/24 02:36:50;;;;;;;97.72;67.20;;;14.00;99.90;;;;;;5072333;28;20291;-67
2022/09/24 02:39:17;;;;;;;99.30;66.13;;;13.90;99.90;;;;;;5055021;28;20048;-67
2022/09/24 02:41:48;;;;;;;122.37;68.00;;;13.90;99.90;;;;;;5072602;28;20278;-67
2022/09/24 02:44:18;;;;;;;147.50;73.27;;;13.90;99.90;;;;;;5072680;28;20800;-68
2022/09/24 02:46:45;;;;;;;103.63;59.80;;;13.80;99.90;;;;;;5055037;28;20635;-68
2022/09/24 02:49:11;;;;;;;178.33;68.10;;;13.80;99.90;;;;;;5075972;28;20677;-68
2022/09/24 02:51:38;;;;;;;207.07;75.73;;;13.70;99.90;;;;;;5058689;28;20340;-68
2022/09/24 02:54:04;;;;;;;305.57;92.23;;;13.80;99.90;;;;;;5076322;28;20329;-68
2022/09/24 02:56:30;;;;;;;134.10;61.90;;;13.70;99.90;;;;;;5076480;28;20295;-68
2022/09/24 02:58:56;;;;;;;137.97;60.10;;;13.70;99.90;;;;;;5076163;28;20279;-68
2022/09/24 03:01:23;;;;;;;199.73;67.60;;;13.70;99.90;;;;;;5058766;28;20333;-68
2022/09/24 03:03:52;;;;;;;265.07;75.63;;;13.70;99.90;;;;;;5076850;28;20388;-68
2022/09/24 03:06:18;;;;;;;138.53;57.67;;;13.70;99.90;;;;;;5076676;28;20611;-67
2022/09/24 03:08:43;;;;;;;194.10;69.93;;;13.70;99.90;;;;;;5058627;28;20282;-68
2022/09/24 03:11:10;;;;;;;208.63;70.13;;;13.60;99.90;;;;;;5076071;28;20049;-67
2022/09/24 03:13:37;;;;;;;186.70;64.03;;;13.70;99.90;;;;;;5076366;28;20044;-68
2022/09/24 03:16:04;;;;;;;388.20;83.60;;;13.60;99.90;;;;;;5075696;28;20337;-67
2022/09/24 03:18:29;;;;;;;328.20;84.67;;;13.60;99.90;;;;;;5076111;28;20282;-67
2022/09/24 03:20:57;;;;;;;188.93;60.93;;;13.70;99.90;;;;;;5075899;28;20275;-67
2022/09/24 03:23:23;;;;;;;112.20;45.10;;;13.70;99.90;;;;;;5075982;28;20052;-67
2022/09/24 03:25:49;;;;;;;447.80;83.50;;;13.70;99.90;;;;;;5075759;28;20279;-67
2022/09/24 03:28:15;;;;;;;288.90;74.47;;;13.70;99.90;;;;;;5075643;28;20040;-67
2022/09/24 03:31:00;;;;;;;152.50;54.87;;;13.70;99.90;;;;;;5076153;28;20507;-67
2022/09/24 03:33:43;;;;;;;187.88;59.55;;;13.70;99.90;;;;;;5076503;28;20310;-67
2022/09/24 03:36:23;;;;;;;221.60;60.60;;;13.80;99.90;;;;;;5075606;28;20059;-67
2022/09/24 03:38:53;;;;;;;384.63;77.00;;;13.70;99.90;;;;;;5076060;28;20279;-67
2022/09/24 03:41:18;;;;;;;260.77;62.77;;;13.70;99.90;;;;;;5075469;28;20283;-67
2022/09/24 03:43:44;;;;;;;358.30;72.87;;;13.70;99.90;;;;;;5075724;28;20278;-67
2022/09/24 03:46:11;;;;;;;218.67;63.07;;;13.80;99.90;;;;;;5075696;28;20040;-67
2022/09/24 03:48:38;;;;;;;317.80;66.73;;;13.80;99.90;;;;;;5075623;28;20044;-67
2022/09/24 03:51:06;;;;;;;214.90;57.17;;;13.80;99.90;;;;;;5075330;28;20596;-67
2022/09/24 03:53:32;;;;;;;413.60;73.43;;;13.70;99.90;;;;;;5075551;28;20283;-67
2022/09/24 03:55:59;;;;;;;150.50;48.83;;;13.80;99.90;;;;;;5075310;28;20287;-67
2022/09/24 03:58:25;;;;;;;366.53;65.53;;;13.80;99.90;;;;;;5075482;28;20362;-67
2022/09/24 04:00:54;;;;;;;280.73;57.70;;;13.80;99.90;;;;;;5074524;28;20283;-67
2022/09/24 04:03:21;;;;;;;255.67;53.93;;;13.80;99.90;;;;;;5075023;28;20275;-67
2022/09/24 04:05:48;;;;;;;497.97;72.93;;;13.80;99.90;;;;;;5074951;28;20285;-67
2022/09/24 04:08:14;;;;;;;431.33;68.77;;;13.90;99.90;;;;;;5075086;28;20325;-67
2022/09/24 04:10:39;;;;;;;372.13;62.47;;;13.90;99.90;;;;;;5057348;28;20314;-66
2022/09/24 04:13:05;;;;;;;312.83;59.50;;;13.90;99.90;;;;;;5057076;28;20036;-66
2022/09/24 04:15:32;;;;;;;183.00;45.77;;;13.90;99.90;;;;;;5074623;28;20058;-66
2022/09/24 04:17:58;;;;;;;73.37;25.30;;;13.90;99.90;;;;;;5075127;28;20053;-66
2022/09/24 04:20:28;;;;;;;75.07;25.80;;;13.90;99.90;;;;;;5075018;28;20278;-66
2022/09/24 04:22:56;;;;;;;52.67;22.07;;;13.80;99.90;;;;;;5074959;28;20313;-67
2022/09/24 04:25:23;;;;;;;46.77;18.30;;;13.80;99.90;;;;;;5074689;28;20286;-67
2022/09/24 04:27:53;;;;;;;62.67;19.83;;;13.80;99.90;;;;;;5057505;28;20369;-67
2022/09/24 04:30:19;;;;;;;45.53;17.87;;;13.80;99.90;;;;;;5074583;28;20302;-67
2022/09/24 04:32:44;;;;;;;39.27;15.47;;;13.80;99.90;;;;;;5057428;28;20322;-67
2022/09/24 04:35:10;;;;;;;72.13;20.47;;;13.80;99.90;;;;;;5074463;28;20047;-67
2022/09/24 04:37:36;;;;;;;106.67;22.97;;;13.80;99.90;;;;;;5074725;28;20048;-67
2022/09/24 04:40:04;;;;;;;38.30;13.10;;;13.80;99.90;;;;;;5074388;28;20158;-68
2022/09/24 04:42:30;;;;;;;22.87;10.53;;;13.80;99.90;;;;;;5074604;28;20287;-67
2022/09/24 04:44:56;;;;;;;31.90;11.13;;;13.80;99.90;;;;;;5074252;28;20774;-67
2022/09/24 04:47:25;;;;;;;43.03;11.93;;;13.70;99.90;;;;;;5056396;28;20283;-67
2022/09/24 04:49:51;;;;;;;31.00;8.53;;;13.70;99.90;;;;;;5074508;28;20048;-67
2022/09/24 04:52:17;;;;;;;25.10;8.47;;;13.70;99.90;;;;;;5074170;28;20274;-67
2022/09/24 04:54:45;;;;;;;20.23;5.17;;;13.70;99.90;;;;;;5074325;28;20279;-67
2022/09/24 04:57:12;;;;;;;26.17;5.73;;;13.70;99.90;;;;;;5073998;28;20049;-67
2022/09/24 04:59:38;;;;;;;19.93;5.03;;;13.70;99.90;;;;;;5074246;28;20329;-67
2022/09/24 05:02:05;;;;;;;22.80;4.87;;;13.70;99.90;;;;;;5074073;28;20291;-70
2022/09/24 05:04:31;;;;;;;19.73;4.53;;;13.70;99.90;;;;;;5074154;28;20048;-67
2022/09/24 05:06:57;;;;;;;16.97;3.30;;;13.70;99.90;;;;;;5073882;28;20275;-67
2022/09/24 05:09:22;;;;;;;23.67;4.67;;;13.70;99.90;;;;;;5055957;28;20044;-67
2022/09/24 05:11:48;;;;;;;19.87;4.47;;;13.60;99.90;;;;;;5073949;28;20473;-67
2022/09/24 05:14:14;;;;;;;20.83;4.30;;;13.60;99.90;;;;;;5073600;28;20052;-67
2022/09/24 05:16:39;;;;;;;19.57;3.87;;;13.60;99.90;;;;;;5073843;28;20045;-67
2022/09/24 05:19:05;;;;;;;24.17;4.23;;;13.60;99.90;;;;;;5073969;28;20097;-67
2022/09/24 05:21:31;;;;;;;18.13;3.60;;;13.60;99.90;;;;;;5056229;28;20532;-67
2022/09/24 05:23:56;;;;;;;20.80;3.67;;;13.50;99.90;;;;;;5073946;28;20419;-67
2022/09/24 05:29:06;;;;;;;19.20;3.73;;;13.50;99.90;;;;;;5073690;28;20048;-68
2022/09/24 05:31:32;;;;;;;14.97;3.07;;;13.50;99.90;;;;;;5073628;28;20286;-67
2022/09/24 05:33:58;;;;;;;18.07;3.20;;;13.40;99.90;;;;;;5073578;28;20044;-67
2022/09/24 05:36:25;;;;;;;23.03;5.37;;;13.40;99.90;;;;;;5073244;28;20127;-67
2022/09/24 05:38:52;;;;;;;15.13;2.80;;;13.40;99.90;;;;;;5073536;28;20052;-67
2022/09/24 05:41:18;;;;;;;14.50;2.70;;;13.40;99.90;;;;;;5073251;28;20279;-67
2022/09/24 05:43:44;;;;;;;12.33;2.73;;;13.40;99.90;;;;;;5073434;28;20823;-67
2022/09/24 05:46:09;;;;;;;13.40;2.73;;;13.40;99.90;;;;;;5073106;28;20048;-69
2022/09/24 05:48:35;;;;;;;17.20;3.00;;;13.40;99.90;;;;;;5073361;28;20040;-67
2022/09/24 05:51:01;;;;;;;13.20;2.40;;;13.30;99.90;;;;;;5055655;28;20087;-67
2022/09/24 05:53:27;;;;;;;12.33;2.93;;;13.30;99.90;;;;;;5072955;28;20046;-67
2022/09/24 05:55:52;;;;;;;16.20;2.40;;;13.30;99.90;;;;;;5073097;28;20302;-67
2022/09/24 05:58:19;;;;;;;13.83;2.93;;;13.30;99.90;;;;;;5072872;28;20047;-67
2022/09/24 06:00:45;;;;;;;9.97;2.37;;;13.30;99.90;;;;;;5055229;28;20480;-67
2022/09/24 06:03:13;;;;;;;9.73;2.00;;;13.30;99.90;;;;;;5072913;28;20285;-71
2022/09/24 06:05:45;;;;;;;13.07;2.47;;;13.30;99.90;;;;;;5073077;28;20105;-67
2022/09/24 06:08:11;;;;;;;11.47;2.30;;;13.30;99.90;;;;;;5073100;28;20277;-67
2022/09/24 06:10:37;;;;;;;14.17;2.60;;;13.30;99.90;;;;;;5055423;28;20623;-67
2022/09/24 06:13:03;;;;;;;14.93;2.70;;;13.30;99.90;;;;;;5073090;28;20286;-67
2022/09/24 06:15:29;;;;;;;10.17;2.77;;;13.30;99.90;;;;;;5054534;28;20404;-67
2022/09/24 06:17:55;;;;;;;13.17;2.30;;;13.30;99.90;;;;;;5072862;28;20278;-67
2022/09/24 06:20:22;;;;;;;16.20;2.57;;;13.30;99.90;;;;;;5072649;28;20393;-67
2022/09/24 06:22:48;;;;;;;9.97;1.87;;;13.30;99.90;;;;;;5072429;28;20091;-67
2022/09/24 06:25:13;;;;;;;14.70;2.43;;;13.30;99.90;;;;;;5072626;28;20315;-70
2022/09/24 06:27:39;;;;;;;14.20;2.77;;;13.40;99.90;;;;;;5072942;28;20048;-67
2022/09/24 06:30:05;;;;;;;13.73;2.87;;;13.30;99.90;;;;;;5054920;28;20051;-67
2022/09/24 06:32:31;;;;;;;13.10;2.40;;;13.40;99.90;;;;;;5072460;28;20070;-67
2022/09/24 06:34:57;;;;;;;12.80;2.53;;;13.40;99.90;;;;;;5072665;28;20292;-67
2022/09/24 06:37:22;;;;;;;12.57;2.60;;;13.40;99.90;;;;;;5054582;28;20052;-67
2022/09/24 06:39:48;;;;;;;10.20;2.30;;;13.50;99.90;;;;;;5072748;28;20052;-67
2022/09/24 06:42:14;;;;;;;14.57;2.50;;;13.50;99.90;;;;;;5072763;28;20162;-67
2022/09/24 06:44:41;;;;;;;13.77;2.73;;;13.50;99.90;;;;;;5072324;28;20390;-67
2022/09/24 06:47:06;;;;;;;13.57;3.03;;;13.50;99.90;;;;;;5072684;28;20044;-67
2022/09/24 06:49:32;;;;;;;15.27;2.83;;;13.50;99.90;;;;;;5072412;28;20298;-67
2022/09/24 06:51:58;;;;;;;15.37;2.93;;;13.50;99.90;;;;;;5054964;28;20048;-67
2022/09/24 06:54:24;;;;;;;12.77;2.37;;;13.50;99.90;;;;;;5072344;28;20051;-67
2022/09/24 06:56:51;;;;;;;13.57;2.23;;;13.50;99.90;;;;;;5072728;28;20044;-67
2022/09/24 06:59:17;;;;;;;10.33;2.33;;;13.50;99.90;;;;;;5072386;28;20087;-70
2022/09/24 07:01:43;;;;;;;14.97;2.30;;;13.60;99.90;;;;;;5072558;28;20750;-67
2022/09/24 07:04:10;;;;;;;17.53;2.93;;;13.60;99.90;;;;;;5072502;28;20289;-66
2022/09/24 07:09:21;;;;;;;12.60;2.20;;;13.60;99.90;;;;;;5072165;28;20275;-66
2022/09/24 07:11:46;;;;;;;13.40;2.50;;;13.60;99.90;;;;;;5072309;28;20294;-68
2022/09/24 07:14:13;;;;;;;11.77;2.37;;;13.60;99.90;;;;;;5072454;28;20295;-67
2022/09/24 07:16:38;;;;;;;15.30;2.40;;;13.60;99.90;;;;;;5072182;28;20079;-67
2022/09/24 07:19:04;;;;;;;12.63;2.27;;;13.70;99.90;;;;;;5054686;28;20614;-67
2022/09/24 07:21:30;;;;;;;10.33;1.87;;;13.70;99.90;;;;;;5072014;28;20055;-66
2022/09/24 07:23:55;;;;;;;9.80;1.77;;;13.80;99.90;;;;;;5072263;28;20087;-66
2022/09/24 07:26:21;;;;;;;11.67;1.70;;;13.80;99.90;;;;;;5072139;28;20047;-66
2022/09/24 07:28:47;;;;;;;10.50;1.97;;;13.80;99.90;;;;;;5072251;28;20132;-66
2022/09/24 07:31:13;;;;;;;9.50;1.90;;;13.80;99.90;;;;;;5072381;28;20182;-66
2022/09/24 07:33:39;;;;;;;10.97;1.90;;;13.80;99.90;;;;;;5072001;28;20400;-66
2022/09/24 07:36:08;;;;;;;11.47;1.87;;;13.90;99.90;;;;;;5057360;28;20442;-66
2022/09/24 07:38:35;;;;;;;9.80;1.67;;;13.90;99.90;;;;;;5075456;28;20286;-66
2022/09/24 07:41:06;;;;;;;7.70;1.60;;;13.90;99.90;;;;;;5075897;28;20275;-66
2022/09/24 07:43:32;;;;;;;11.83;2.30;;;13.90;99.90;;;;;;5075505;28;20290;-66
2022/09/24 07:45:58;;;;;;;7.57;1.30;;;14.00;99.90;;;;;;5041594;28;20287;-66
2022/09/24 07:48:24;;;;;;;7.73;1.43;;;14.00;99.90;;;;;;5075213;28;20044;-68
2022/09/24 07:50:50;;;;;;;14.17;2.80;;;14.10;99.90;;;;;;5057738;28;20048;-67
2022/09/24 07:53:16;;;;;;;10.27;1.90;;;14.20;99.90;;;;;;5075637;28;20048;-66
2022/09/24 07:55:41;;;;;;;8.07;1.63;;;14.20;99.90;;;;;;5074894;28;20045;-67
2022/09/24 07:58:11;;;;;;;4.73;1.40;;;14.30;99.90;;;;;;5075475;28;20052;-66
2022/09/24 08:00:37;;;;;;;14.60;2.77;;;14.30;99.90;;;;;;5075180;28;20037;-66
2022/09/24 08:03:04;;;;;;;8.73;1.80;;;14.30;99.90;;;;;;5057519;28;20606;-67
2022/09/24 08:05:31;;;;;;;7.73;1.47;;;14.40;99.90;;;;;;5075120;28;20377;-65
2022/09/24 08:07:58;;;;;;;7.40;1.70;;;14.40;99.90;;;;;;5075632;28;20274;-66
2022/09/24 08:10:25;;;;;;;6.40;1.33;;;14.40;99.90;;;;;;5057422;28;20289;-66
2022/09/24 08:12:51;;;;;;;11.17;2.37;;;14.50;99.90;;;;;;5075256;28;20300;-66
2022/09/24 08:15:18;;;;;;;9.03;1.80;;;14.60;99.90;;;;;;5075239;28;20393;-66
2022/09/24 08:17:44;;;;;;;8.00;1.60;;;14.70;99.90;;;;;;5074930;28;20098;-66
2022/09/24 08:20:11;;;;;;;9.00;1.33;;;14.80;99.90;;;;;;5057218;28;20087;-66
2022/09/24 08:22:37;;;;;;;8.00;1.63;;;14.80;99.90;;;;;;5057160;28;20171;-67
2022/09/24 08:25:04;;;;;;;11.40;1.80;;;14.90;99.90;;;;;;5075145;28;20271;-66
2022/09/24 08:27:31;;;;;;;7.83;1.90;;;14.90;99.90;;;;;;5057081;28;20127;-67
2022/09/24 08:29:59;;;;;;;8.90;1.97;;;15.00;99.90;;;;;;5056967;28;20785;-66
2022/09/24 08:32:25;;;;;;;7.17;1.60;;;15.00;99.90;;;;;;5057198;28;20055;-66
2022/09/24 08:34:51;;;;;;;6.83;1.50;;;15.10;99.90;;;;;;5074586;28;20040;-66
2022/09/24 08:37:17;;;;;;;10.67;2.10;;;15.10;99.90;;;;;;5074783;28;20305;-66
2022/09/24 08:39:43;;;;;;;11.80;1.60;;;15.20;99.90;;;;;;5040216;28;20131;-66
2022/09/24 08:42:52;;;;;;;11.07;1.70;;;15.20;99.90;;;;;;5056883;28;20044;-65
2022/09/24 08:48:19;;;;;;;14.48;3.05;;;15.10;99.90;;;;;;5074984;28;20044;-66
2022/09/24 08:50:59;;;;;;;12.20;2.80;;;15.10;99.90;;;;;;5074406;28;20048;-65
2022/09/24 08:53:42;;;;;;;11.33;2.20;;;15.00;99.90;;;;;;5040136;28;20483;-65
2022/09/24 08:56:09;;;;;;;11.20;2.17;;;15.00;99.90;;;;;;5074519;28;20127;-66
2022/09/24 08:59:16;;;;;;;9.27;2.20;;;15.00;99.90;;;;;;5074279;28;20461;-66
2022/09/24 09:01:49;;;;;;;15.50;2.70;;;15.00;99.90;;;;;;5056411;28;20126;-66
2022/09/24 09:04:33;;;;;;;15.37;2.40;;;14.90;99.90;;;;;;5074374;28;20044;-65
2022/09/24 09:07:20;;;;;;;14.70;2.42;;;14.80;99.90;;;;;;5074453;28;20106;-66
2022/09/24 09:10:12;;;;;;;13.63;2.77;;;14.80;99.90;;;;;;5074010;28;20052;-66
2022/09/24 09:12:51;;;;;;;15.23;2.77;;;14.80;99.90;;;;;;5074020;28;20705;-67
2022/09/24 09:15:30;;;;;;;9.33;1.90;;;14.70;99.90;;;;;;5055915;28;20057;-69
2022/09/24 09:18:05;;;;;;;12.47;3.17;;;14.70;99.90;;;;;;5073769;28;20048;-69
2022/09/24 09:20:37;;;;;;;15.68;2.20;;;14.70;99.90;;;;;;5073970;28;20084;-68
2022/09/24 09:23:15;;;;;;;9.27;2.53;;;14.70;99.90;;;;;;5052432;28;20056;-69
2022/09/24 09:25:51;;;;;;;12.53;3.07;;;14.70;99.90;;;;;;5071670;28;20120;-68
2022/09/24 09:28:18;;;;;;;11.13;2.40;;;14.70;99.90;;;;;;5071194;28;20274;-67
2022/09/24 09:31:17;;;;;;;13.50;2.03;;;14.70;99.90;;;;;;5055574;28;20362;-68
2022/09/24 09:34:09;;;;;;;8.10;1.83;;;14.70;99.90;;;;;;5071632;28;20052;-70
2022/09/24 09:37:06;;;;;;;11.53;1.60;;;14.80;99.90;;;;;;5070395;28;20497;-68
2022/09/24 09:40:01;;;;;;;10.90;2.43;;;14.80;99.90;;;;;;5073435;28;20287;-71
2022/09/24 09:42:29;;;;;;;;;;;14.80;99.90;;;;;;5053990;28;20076;-68
2022/09/24 09:44:55;;;;;;;9.07;1.93;;;14.80;99.90;;;;;;5035348;28;20387;-68
2022/09/24 09:47:34;;;;;;;8.47;2.20;;;14.80;99.90;;;;;;5053419;28;20124;-70
2022/09/24 09:50:14;;;;;;;9.20;2.20;;;14.80;99.90;;;;;;5035390;28;20464;-68
2022/09/24 09:52:40;;;;;;;12.50;2.40;;;14.80;99.90;;;;;;5051875;28;20485;-69
2022/09/24 09:55:06;;;;;;;13.37;1.83;;;14.70;99.90;;;;;;5051286;28;20394;-69
2022/09/24 09:57:37;;;;;;;10.57;1.80;;;14.80;99.90;;;;;;5052577;28;20045;-66
2022/09/24 10:00:04;;;;;;;11.03;1.73;;;14.80;99.90;;;;;;5018986;28;20098;-68
2022/09/24 10:02:33;;;;;;;9.33;1.60;;;14.80;99.90;;;;;;5056599;28;20433;-68
2022/09/24 10:05:05;;;;;;;10.80;1.80;;;14.80;99.90;;;;;;5072885;28;20497;-68
2022/09/24 10:07:31;;;;;;;6.07;1.73;;;14.80;99.90;;;;;;5073158;28;20056;-67
2022/09/24 10:10:15;;;;;;;11.63;2.00;;;14.70;99.90;;;;;;5072780;28;20053;-68
2022/09/24 10:12:41;;;;;;;10.63;1.77;;;14.70;99.90;;;;;;5072880;28;20071;-70
2022/09/24 10:15:18;;;;;;;12.00;2.10;;;14.70;99.90;;;;;;5072679;28;20484;-69
2022/09/24 10:17:51;;;;;;;12.47;2.13;;;14.70;99.90;;;;;;5072356;28;20045;-68
2022/09/24 10:20:23;;;;;;;9.23;2.47;;;14.60;99.90;;;;;;5073136;28;20147;-70
2022/09/24 10:22:54;;;;;;;11.77;2.13;;;14.60;99.90;;;;;;5055050;28;20105;-69
2022/09/24 10:25:28;;;;;;;13.37;2.23;;;14.60;99.90;;;;;;5072884;28;20079;-68
2022/09/24 10:30:56;;;;;;;11.90;2.03;;;14.60;99.90;;;;;;5072703;28;20052;-67
2022/09/24 10:33:22;;;;;;;8.80;1.67;;;14.70;99.90;;;;;;5072824;28;20072;-68
2022/09/24 10:35:48;;;;;;;9.77;1.83;;;14.70;99.90;;;;;;5072487;28;20044;-66
2022/09/24 10:38:20;;;;;;;9.57;1.83;;;14.70;99.90;;;;;;5072790;28;20044;-67
2022/09/24 10:40:46;;;;;;;10.53;1.90;;;14.80;99.90;;;;;;5054493;28;20044;-68
2022/09/24 10:43:20;;;;;;;11.07;1.90;;;14.80;99.90;;;;;;5072433;28;20052;-72
2022/09/24 10:45:51;;;;;;;9.63;1.77;;;14.80;99.90;;;;;;5072498;28;20401;-69
2022/09/24 10:48:34;;;;;;;8.07;1.87;;;14.80;99.90;;;;;;5072936;28;20048;-68
2022/09/24 10:51:37;;;;;;;14.07;3.17;;;14.90;99.90;;;;;;5072498;28;20045;-69
2022/09/24 10:54:38;;;;;;;12.80;2.73;;;14.90;99.90;;;;;;5068792;28;20130;-68
2022/09/24 10:57:20;;;;;;;11.63;3.93;;;15.10;99.90;;;;;;5058977;28;20048;-69
2022/09/24 10:59:52;;;;;;;9.33;2.10;;;15.10;99.90;;;;;;5054917;28;20118;-74
2022/09/24 11:02:41;;;;;;;11.60;2.80;;;15.20;99.90;;;;;;5054839;28;20082;-66
2022/09/24 11:05:36;;;;;;;14.07;5.30;;;;;;;;;;5072340;28;20049;-66
2022/09/24 11:08:40;;;;;;;11.20;2.53;;;15.30;99.90;;;;;;4967797;28;20153;-66
2022/09/24 11:11:21;;;;;;;10.63;2.30;;;15.40;99.90;;;;;;5076112;28;20052;-66
2022/09/24 11:13:59;;;;;;;13.20;2.83;;;;;;;;;;5076192;28;20098;-66
2022/09/24 11:17:02;;;;;;;7.97;1.97;;;15.50;99.90;;;;;;5076267;28;20049;-67
2022/09/24 11:20:02;;;;;;;10.53;2.33;;;15.50;99.90;;;;;;5058362;28;20059;-67
2022/09/24 11:23:15;;;;;;;9.50;1.57;;;15.60;99.90;;;;;;5076125;28;20052;-66
2022/09/24 11:26:06;;;;;;;10.00;1.90;;;15.60;99.90;;;;;;5052408;28;20088;-66
2022/09/24 11:28:42;;;;;;;10.73;1.83;;;15.60;99.90;;;;;;5076112;28;20056;-67
2022/09/24 11:31:17;;;;;;;10.53;2.23;;;15.60;99.90;;;;;;5075750;28;20499;-66
2022/09/24 11:34:13;;;;;;;9.75;2.20;;;15.50;99.90;;;;;;5076390;28;20076;-67
2022/09/24 11:37:13;;;;;;;10.00;2.30;;;15.50;99.90;;;;;;5075847;28;20098;-68
2022/09/24 11:40:17;;;;;;;9.93;1.70;;;15.60;99.90;;;;;;5075812;28;20163;-67
2022/09/24 11:43:24;;;;;;;16.07;2.77;;;15.50;99.90;;;;;;5058063;28;20055;-67
2022/09/24 11:46:11;;;;;;;12.27;2.37;;;15.50;99.90;;;;;;5075781;28;20041;-67
2022/09/24 11:48:49;;;;;;;18.53;2.73;;;15.40;99.90;;;;;;5075944;28;20411;-67
2022/09/24 11:51:52;;;;;;;10.70;2.63;;;15.30;99.90;;;;;;5075612;28;20045;-68
2022/09/24 11:54:33;;;;;;;13.77;2.17;;;15.20;99.90;;;;;;5075509;28;20044;-67
2022/09/24 11:57:17;;;;;;;9.67;1.93;;;15.10;99.90;;;;;;5075214;28;20103;-67
2022/09/24 11:59:54;;;;;;;12.33;2.07;;;14.90;99.90;;;;;;5075458;28;20048;-67
2022/09/24 12:02:50;;;;;;;6.20;1.60;;;15.10;99.90;;;;;;5075419;28;20519;-66
2022/09/24 12:05:36;;;;;;;;;;;14.90;99.90;;;;;;5075566;28;20045;-67
2022/09/24 12:08:16;;;;;;;10.43;2.40;;;15.00;99.90;;;;;;5075057;28;19943;-68
2022/09/24 12:10:55;;;;;;;9.07;1.90;;;14.90;99.90;;;;;;5075458;28;20106;-68
2022/09/24 12:13:31;;;;;;;8.27;1.80;;;15.00;99.90;;;;;;5074928;28;20583;-68
2022/09/24 12:16:02;;;;;;;8.83;1.87;;;14.90;99.90;;;;;;5074475;28;20056;-66
2022/09/24 12:18:54;;;;;;;9.13;2.77;;;15.10;99.90;;;;;;5075184;28;20079;-65
2022/09/24 12:21:42;;;;;;;12.67;2.20;;;15.10;99.90;;;;;;5060707;28;20052;-65
2022/09/24 12:24:36;;;;;;;6.20;2.00;;;15.10;99.90;;;;;;5074586;28;20127;-66
2022/09/24 12:27:09;;;;;;;11.67;3.47;;;15.10;99.90;;;;;;5071529;28;20060;-68
2022/09/24 12:33:02;;;;;;;9.47;2.10;;;15.00;99.90;;;;;;5074816;28;20125;-67
2022/09/24 12:35:44;;;;;;;10.13;1.57;;;15.10;99.90;;;;;;5074647;28;20139;-67
2022/09/24 12:38:13;;;;;;;10.93;2.80;;;15.00;99.90;;;;;;5074465;28;20123;-67
2022/09/24 12:40:51;;;;;;;13.67;3.20;;;15.10;99.90;;;;;;5074575;28;20404;-66
2022/09/24 12:43:26;;;;;;;12.43;2.40;;;15.20;99.90;;;;;;5074340;28;20071;-66
2022/09/24 12:46:00;;;;;;;12.35;2.20;;;15.30;99.90;;;;;;5074850;28;20048;-67
2022/09/24 12:48:28;;;;;;;13.20;2.20;;;15.30;99.90;;;;;;5075021;28;20102;-68
2022/09/24 12:51:00;;;;;;;8.17;2.00;;;15.30;99.90;;;;;;5074595;28;20052;-67
2022/09/24 12:53:35;;;;;;;20.83;2.90;;;15.50;99.90;;;;;;5074445;28;20131;-67
2022/09/24 12:56:03;;;;;;;8.60;1.60;;;15.50;99.90;;;;;;5074106;28;20387;-68
2022/09/24 12:58:40;;;;;;;8.63;1.73;;;;;;;;;;5074286;28;20074;-67
2022/09/24 13:01:14;;;;;;;9.67;1.60;;;;;;;;;;5074000;28;20127;-67
2022/09/24 13:03:41;;;;;;;9.27;1.97;;;;;;;;;;5074230;28;20088;-68
2022/09/24 13:06:21;;;;;;;10.20;1.80;;;;;;;;;;5056046;28;20723;-68
2022/09/24 13:08:49;;;;;;;8.00;1.53;;;;;;;;;;5074177;28;20049;-68
2022/09/24 13:11:33;;;;;;;8.20;1.70;;;;;;;;;;5073703;28;20123;-68
2022/09/24 13:14:12;;;;;;;8.73;2.20;;;;;;;;;;5073826;28;20090;-67
2022/09/24 13:17:04;;;;;;;10.73;2.00;;;;;;;;;;5073865;28;20299;-68
2022/09/24 13:19:35;;;;;;;9.23;1.77;;;;;;;;;;5069245;28;20087;-68
2022/09/24 13:22:02;;;;;;;12.23;2.70;;;;;;;;;;5073997;28;20044;-68